sensor_id;sensor_type;location;lat;lon;timestamp;P1;durP1;ratioP1;P2;durP2;ratioP2
65825;SDS011;52586;-43.152;172.732;2022-08-01T00:02:00;0.80;;;0.52;;
65825;SDS011;52586;-43.152;172.732;2022-08-01T00:04:33;2.45;;;0.52;;
65825;SDS011;52586;-43.152;172.732;2022-08-01T00:07:04;0.93;;;0.65;;
65825;SDS011;52586;-43.152;172.732;2022-08-01T00:09:34;1.23;;;0.47;;
65825;SDS011;52586;-43.152;172.732;2022-08-01T00:12:05;0.40;;;0.40;;
65825;SDS011;52586;-43.152;172.732;2022-08-01T00:14:36;1.77;;;0.60;;
65825;SDS011;52586;-43.152;172.732;2022-08-01T00:17:07;0.73;;;0.40;;
65825;SDS011;52586;-43.152;172.732;2022-08-01T00:19:39;0.75;;;0.50;;
65825;SDS011;52586;-43.152;172.732;2022-08-01T00:22:10;0.55;;;0.55;;
65825;SDS011;52586;-43.152;172.732;2022-08-01T00:24:41;1.38;;;0.60;;
65825;SDS011;52586;-43.152;172.732;2022-08-01T00:27:11;0.50;;;0.32;;
65825;SDS011;52586;-43.152;172.732;2022-08-01T00:29:42;0.70;;;0.50;;
65825;SDS011;52586;-43.152;172.732;2022-08-01T00:32:13;0.75;;;0.50;;
65825;SDS011;52586;-43.152;172.732;2022-08-01T00:34:45;0.65;;;0.50;;
65825;SDS011;52586;-43.152;172.732;2022-08-01T00:37:16;0.63;;;0.50;;
65825;SDS011;52586;-43.152;172.732;2022-08-01T00:39:47;0.68;;;0.40;;
65825;SDS011;52586;-43.152;172.732;2022-08-01T00:42:17;1.00;;;0.40;;
65825;SDS011;52586;-43.152;172.732;2022-08-01T00:44:48;0.82;;;0.40;;
65825;SDS011;52586;-43.152;172.732;2022-08-01T00:47:19;0.93;;;0.38;;
65825;SDS011;52586;-43.152;172.732;2022-08-01T00:49:51;0.60;;;0.45;;
65825;SDS011;52586;-43.152;172.732;2022-08-01T00:52:22;0.82;;;0.50;;
65825;SDS011;52586;-43.152;172.732;2022-08-01T00:54:53;0.73;;;0.52;;
65825;SDS011;52586;-43.152;172.732;2022-08-01T00:57:23;0.68;;;0.47;;
65825;SDS011;52586;-43.152;172.732;2022-08-01T00:59:54;0.57;;;0.40;;
65825;SDS011;52586;-43.152;172.732;2022-08-01T01:02:25;0.63;;;0.40;;
65825;SDS011;52586;-43.152;172.732;2022-08-01T01:04:58;1.45;;;0.52;;
65825;SDS011;52586;-43.152;172.732;2022-08-01T01:07:29;1.10;;;0.40;;
65825;SDS011;52586;-43.152;172.732;2022-08-01T01:10:06;0.60;;;0.52;;
65825;SDS011;52586;-43.152;172.732;2022-08-01T01:12:42;0.50;;;0.50;;
65825;SDS011;52586;-43.152;172.732;2022-08-01T01:15:18;0.85;;;0.50;;
65825;SDS011;52586;-43.152;172.732;2022-08-01T01:17:52;0.60;;;0.43;;
65825;SDS011;52586;-43.152;172.732;2022-08-01T01:20:29;0.75;;;0.52;;
65825;SDS011;52586;-43.152;172.732;2022-08-01T01:23:15;0.60;;;0.40;;
65825;SDS011;52586;-43.152;172.732;2022-08-01T01:29:03;2.42;;;0.65;;
65825;SDS011;52586;-43.152;172.732;2022-08-01T01:31:40;1.23;;;0.47;;
65825;SDS011;52586;-43.152;172.732;2022-08-01T01:34:13;1.23;;;0.60;;
65825;SDS011;52586;-43.152;172.732;2022-08-01T01:36:47;0.68;;;0.50;;
65825;SDS011;52586;-43.152;172.732;2022-08-01T01:39:21;1.70;;;0.65;;
65825;SDS011;52586;-43.152;172.732;2022-08-01T01:41:55;0.85;;;0.73;;
65825;SDS011;52586;-43.152;172.732;2022-08-01T01:44:29;1.40;;;0.77;;
65825;SDS011;52586;-43.152;172.732;2022-08-01T01:47:00;1.45;;;0.70;;
65825;SDS011;52586;-43.152;172.732;2022-08-01T01:49:33;1.25;;;0.90;;
65825;SDS011;52586;-43.152;172.732;2022-08-01T01:52:04;0.68;;;0.52;;
65825;SDS011;52586;-43.152;172.732;2022-08-01T01:54:36;3.08;;;0.55;;
65825;SDS011;52586;-43.152;172.732;2022-08-01T01:57:09;0.88;;;0.57;;
65825;SDS011;52586;-43.152;172.732;2022-08-01T01:59:45;0.75;;;0.50;;
65825;SDS011;52586;-43.152;172.732;2022-08-01T02:02:18;0.73;;;0.60;;
65825;SDS011;52586;-43.152;172.732;2022-08-01T02:04:51;0.50;;;0.30;;
65825;SDS011;52586;-43.152;172.732;2022-08-01T02:07:24;0.98;;;0.50;;
65825;SDS011;52586;-43.152;172.732;2022-08-01T02:09:56;1.08;;;0.65;;
65825;SDS011;52586;-43.152;172.732;2022-08-01T02:12:29;0.75;;;0.50;;
65825;SDS011;52586;-43.152;172.732;2022-08-01T02:15:06;1.35;;;0.60;;
65825;SDS011;52586;-43.152;172.732;2022-08-01T02:17:39;0.88;;;0.60;;
65825;SDS011;52586;-43.152;172.732;2022-08-01T02:20:14;0.47;;;0.40;;
65825;SDS011;52586;-43.152;172.732;2022-08-01T02:22:46;1.15;;;0.60;;
65825;SDS011;52586;-43.152;172.732;2022-08-01T02:25:20;1.05;;;0.70;;
65825;SDS011;52586;-43.152;172.732;2022-08-01T02:27:56;0.40;;;0.40;;
65825;SDS011;52586;-43.152;172.732;2022-08-01T02:30:34;1.08;;;0.50;;
65825;SDS011;52586;-43.152;172.732;2022-08-01T02:33:05;0.90;;;0.50;;
65825;SDS011;52586;-43.152;172.732;2022-08-01T02:35:40;1.05;;;0.60;;
65825;SDS011;52586;-43.152;172.732;2022-08-01T02:38:13;0.98;;;0.60;;
65825;SDS011;52586;-43.152;172.732;2022-08-01T02:40:46;1.05;;;0.60;;
65825;SDS011;52586;-43.152;172.732;2022-08-01T02:43:20;1.33;;;0.60;;
65825;SDS011;52586;-43.152;172.732;2022-08-01T02:45:54;0.70;;;0.52;;
65825;SDS011;52586;-43.152;172.732;2022-08-01T02:48:28;0.93;;;0.60;;
65825;SDS011;52586;-43.152;172.732;2022-08-01T02:51:02;0.55;;;0.52;;
65825;SDS011;52586;-43.152;172.732;2022-08-01T02:53:35;0.52;;;0.50;;
65825;SDS011;52586;-43.152;172.732;2022-08-01T02:56:08;2.03;;;0.75;;
65825;SDS011;52586;-43.152;172.732;2022-08-01T02:58:40;0.90;;;0.50;;
65825;SDS011;52586;-43.152;172.732;2022-08-01T03:01:15;0.40;;;0.40;;
65825;SDS011;52586;-43.152;172.732;2022-08-01T03:03:47;0.50;;;0.40;;
65825;SDS011;52586;-43.152;172.732;2022-08-01T03:06:18;0.73;;;0.47;;
65825;SDS011;52586;-43.152;172.732;2022-08-01T03:08:49;0.65;;;0.50;;
65825;SDS011;52586;-43.152;172.732;2022-08-01T03:11:21;0.45;;;0.32;;
65825;SDS011;52586;-43.152;172.732;2022-08-01T03:13:54;0.75;;;0.45;;
65825;SDS011;52586;-43.152;172.732;2022-08-01T03:16:29;0.95;;;0.60;;
65825;SDS011;52586;-43.152;172.732;2022-08-01T03:19:02;0.60;;;0.40;;
65825;SDS011;52586;-43.152;172.732;2022-08-01T03:21:35;0.40;;;0.40;;
65825;SDS011;52586;-43.152;172.732;2022-08-01T03:24:09;1.25;;;0.50;;
65825;SDS011;52586;-43.152;172.732;2022-08-01T03:26:41;1.08;;;0.70;;
65825;SDS011;52586;-43.152;172.732;2022-08-01T03:29:13;1.45;;;0.55;;
65825;SDS011;52586;-43.152;172.732;2022-08-01T03:31:47;2.35;;;0.93;;
65825;SDS011;52586;-43.152;172.732;2022-08-01T03:34:19;0.90;;;0.60;;
65825;SDS011;52586;-43.152;172.732;2022-08-01T03:36:51;1.00;;;0.63;;
65825;SDS011;52586;-43.152;172.732;2022-08-01T03:39:27;0.95;;;0.60;;
65825;SDS011;52586;-43.152;172.732;2022-08-01T03:42:01;1.55;;;0.50;;
65825;SDS011;52586;-43.152;172.732;2022-08-01T03:44:36;0.95;;;0.70;;
65825;SDS011;52586;-43.152;172.732;2022-08-01T03:47:11;1.65;;;0.68;;
65825;SDS011;52586;-43.152;172.732;2022-08-01T03:49:44;1.35;;;0.60;;
65825;SDS011;52586;-43.152;172.732;2022-08-01T03:52:18;1.20;;;0.65;;
65825;SDS011;52586;-43.152;172.732;2022-08-01T03:54:50;1.75;;;0.60;;
65825;SDS011;52586;-43.152;172.732;2022-08-01T03:57:24;0.80;;;0.60;;
65825;SDS011;52586;-43.152;172.732;2022-08-01T03:59:56;1.10;;;0.77;;
65825;SDS011;52586;-43.152;172.732;2022-08-01T04:02:29;1.10;;;0.70;;
65825;SDS011;52586;-43.152;172.732;2022-08-01T04:05:00;0.98;;;0.70;;
65825;SDS011;52586;-43.152;172.732;2022-08-01T04:07:33;1.95;;;0.82;;
65825;SDS011;52586;-43.152;172.732;2022-08-01T04:10:05;0.77;;;0.60;;
65825;SDS011;52586;-43.152;172.732;2022-08-01T04:12:36;1.73;;;0.80;;
65825;SDS011;52586;-43.152;172.732;2022-08-01T04:15:07;1.65;;;0.60;;
65825;SDS011;52586;-43.152;172.732;2022-08-01T04:17:40;1.17;;;0.70;;
65825;SDS011;52586;-43.152;172.732;2022-08-01T04:20:11;0.50;;;0.50;;
65825;SDS011;52586;-43.152;172.732;2022-08-01T04:22:42;0.57;;;0.57;;
65825;SDS011;52586;-43.152;172.732;2022-08-01T04:25:14;0.60;;;0.60;;
65825;SDS011;52586;-43.152;172.732;2022-08-01T04:27:49;1.77;;;0.60;;
65825;SDS011;52586;-43.152;172.732;2022-08-01T04:30:22;0.95;;;0.63;;
65825;SDS011;52586;-43.152;172.732;2022-08-01T04:33:00;0.98;;;0.68;;
65825;SDS011;52586;-43.152;172.732;2022-08-01T04:35:33;0.93;;;0.50;;
65825;SDS011;52586;-43.152;172.732;2022-08-01T04:38:05;1.10;;;0.65;;
65825;SDS011;52586;-43.152;172.732;2022-08-01T04:40:36;1.65;;;0.60;;
65825;SDS011;52586;-43.152;172.732;2022-08-01T04:43:09;1.38;;;0.65;;
65825;SDS011;52586;-43.152;172.732;2022-08-01T04:45:39;0.88;;;0.63;;
65825;SDS011;52586;-43.152;172.732;2022-08-01T04:48:13;1.40;;;0.75;;
65825;SDS011;52586;-43.152;172.732;2022-08-01T04:50:46;2.95;;;0.70;;
65825;SDS011;52586;-43.152;172.732;2022-08-01T04:53:17;1.48;;;0.80;;
65825;SDS011;52586;-43.152;172.732;2022-08-01T04:55:50;1.17;;;0.80;;
65825;SDS011;52586;-43.152;172.732;2022-08-01T04:58:21;1.42;;;0.80;;
65825;SDS011;52586;-43.152;172.732;2022-08-01T05:00:52;0.95;;;0.50;;
65825;SDS011;52586;-43.152;172.732;2022-08-01T05:03:24;0.77;;;0.73;;
65825;SDS011;52586;-43.152;172.732;2022-08-01T05:05:55;1.23;;;0.75;;
65825;SDS011;52586;-43.152;172.732;2022-08-01T05:08:26;0.90;;;0.75;;
65825;SDS011;52586;-43.152;172.732;2022-08-01T05:10:57;1.98;;;0.80;;
65825;SDS011;52586;-43.152;172.732;2022-08-01T05:13:27;0.90;;;0.70;;
65825;SDS011;52586;-43.152;172.732;2022-08-01T05:15:58;1.40;;;0.70;;
65825;SDS011;52586;-43.152;172.732;2022-08-01T05:18:31;0.73;;;0.70;;
65825;SDS011;52586;-43.152;172.732;2022-08-01T05:21:02;0.98;;;0.70;;
65825;SDS011;52586;-43.152;172.732;2022-08-01T05:23:33;1.00;;;0.70;;
65825;SDS011;52586;-43.152;172.732;2022-08-01T05:26:04;0.60;;;0.60;;
65825;SDS011;52586;-43.152;172.732;2022-08-01T05:28:34;0.98;;;0.80;;
65825;SDS011;52586;-43.152;172.732;2022-08-01T05:31:06;0.70;;;0.47;;
65825;SDS011;52586;-43.152;172.732;2022-08-01T05:33:38;0.60;;;0.60;;
65825;SDS011;52586;-43.152;172.732;2022-08-01T05:36:09;2.17;;;0.70;;
65825;SDS011;52586;-43.152;172.732;2022-08-01T05:38:40;1.08;;;0.73;;
65825;SDS011;52586;-43.152;172.732;2022-08-01T05:41:10;0.93;;;0.70;;
65825;SDS011;52586;-43.152;172.732;2022-08-01T05:43:41;0.90;;;0.80;;
65825;SDS011;52586;-43.152;172.732;2022-08-01T05:46:12;0.75;;;0.60;;
65825;SDS011;52586;-43.152;172.732;2022-08-01T05:48:44;1.10;;;0.80;;
65825;SDS011;52586;-43.152;172.732;2022-08-01T05:51:15;1.80;;;0.85;;
65825;SDS011;52586;-43.152;172.732;2022-08-01T05:53:46;1.08;;;0.60;;
65825;SDS011;52586;-43.152;172.732;2022-08-01T05:56:16;0.85;;;0.70;;
65825;SDS011;52586;-43.152;172.732;2022-08-01T05:58:47;0.75;;;0.70;;
65825;SDS011;52586;-43.152;172.732;2022-08-01T06:01:19;1.92;;;0.70;;
65825;SDS011;52586;-43.152;172.732;2022-08-01T06:03:51;0.52;;;0.52;;
65825;SDS011;52586;-43.152;172.732;2022-08-01T06:06:22;1.05;;;0.80;;
65825;SDS011;52586;-43.152;172.732;2022-08-01T06:08:53;0.75;;;0.63;;
65825;SDS011;52586;-43.152;172.732;2022-08-01T06:11:23;0.90;;;0.65;;
65825;SDS011;52586;-43.152;172.732;2022-08-01T06:13:54;0.80;;;0.80;;
65825;SDS011;52586;-43.152;172.732;2022-08-01T06:16:25;2.95;;;1.90;;
65825;SDS011;52586;-43.152;172.732;2022-08-01T06:18:57;2.30;;;2.10;;
65825;SDS011;52586;-43.152;172.732;2022-08-01T06:21:28;2.08;;;1.77;;
65825;SDS011;52586;-43.152;172.732;2022-08-01T06:23:58;1.90;;;1.60;;
65825;SDS011;52586;-43.152;172.732;2022-08-01T06:26:29;1.58;;;1.40;;
65825;SDS011;52586;-43.152;172.732;2022-08-01T06:29:00;1.20;;;1.05;;
65825;SDS011;52586;-43.152;172.732;2022-08-01T06:31:31;1.75;;;1.38;;
65825;SDS011;52586;-43.152;172.732;2022-08-01T06:34:03;1.73;;;1.42;;
65825;SDS011;52586;-43.152;172.732;2022-08-01T06:36:34;2.05;;;1.45;;
65825;SDS011;52586;-43.152;172.732;2022-08-01T06:39:04;1.48;;;1.38;;
65825;SDS011;52586;-43.152;172.732;2022-08-01T06:41:35;1.40;;;1.30;;
65825;SDS011;52586;-43.152;172.732;2022-08-01T06:44:07;1.95;;;1.50;;
65825;SDS011;52586;-43.152;172.732;2022-08-01T06:46:38;1.73;;;1.50;;
65825;SDS011;52586;-43.152;172.732;2022-08-01T06:49:10;1.40;;;1.30;;
65825;SDS011;52586;-43.152;172.732;2022-08-01T06:51:41;1.65;;;1.30;;
65825;SDS011;52586;-43.152;172.732;2022-08-01T06:54:12;1.25;;;1.15;;
65825;SDS011;52586;-43.152;172.732;2022-08-01T06:56:42;1.20;;;1.10;;
65825;SDS011;52586;-43.152;172.732;2022-08-01T06:59:13;1.30;;;1.20;;
65825;SDS011;52586;-43.152;172.732;2022-08-01T07:01:44;1.20;;;1.10;;
65825;SDS011;52586;-43.152;172.732;2022-08-01T07:04:16;1.52;;;1.42;;
65825;SDS011;52586;-43.152;172.732;2022-08-01T07:06:47;1.38;;;1.20;;
65825;SDS011;52586;-43.152;172.732;2022-08-01T07:09:17;1.48;;;1.20;;
65825;SDS011;52586;-43.152;172.732;2022-08-01T07:11:48;1.30;;;1.20;;
65825;SDS011;52586;-43.152;172.732;2022-08-01T07:14:19;1.30;;;1.17;;
65825;SDS011;52586;-43.152;172.732;2022-08-01T07:16:50;1.70;;;1.00;;
65825;SDS011;52586;-43.152;172.732;2022-08-01T07:19:23;1.42;;;1.10;;
65825;SDS011;52586;-43.152;172.732;2022-08-01T07:21:53;1.95;;;1.23;;
65825;SDS011;52586;-43.152;172.732;2022-08-01T07:24:24;1.67;;;1.20;;
65825;SDS011;52586;-43.152;172.732;2022-08-01T07:26:55;1.23;;;1.00;;
65825;SDS011;52586;-43.152;172.732;2022-08-01T07:29:26;0.82;;;0.80;;
65825;SDS011;52586;-43.152;172.732;2022-08-01T07:31:57;1.40;;;1.20;;
65825;SDS011;52586;-43.152;172.732;2022-08-01T07:34:29;1.48;;;1.20;;
65825;SDS011;52586;-43.152;172.732;2022-08-01T07:37:00;2.63;;;1.15;;
65825;SDS011;52586;-43.152;172.732;2022-08-01T07:39:31;2.05;;;1.08;;
65825;SDS011;52586;-43.152;172.732;2022-08-01T07:42:01;1.38;;;1.10;;
65825;SDS011;52586;-43.152;172.732;2022-08-01T07:44:32;1.23;;;1.13;;
65825;SDS011;52586;-43.152;172.732;2022-08-01T07:47:03;1.30;;;1.17;;
65825;SDS011;52586;-43.152;172.732;2022-08-01T07:49:36;1.90;;;1.10;;
65825;SDS011;52586;-43.152;172.732;2022-08-01T07:52:06;1.92;;;1.10;;
65825;SDS011;52586;-43.152;172.732;2022-08-01T07:54:37;1.40;;;1.20;;
65825;SDS011;52586;-43.152;172.732;2022-08-01T07:57:08;1.13;;;1.02;;
65825;SDS011;52586;-43.152;172.732;2022-08-01T07:59:38;1.30;;;0.80;;
65825;SDS011;52586;-43.152;172.732;2022-08-01T08:02:09;0.90;;;0.80;;
65825;SDS011;52586;-43.152;172.732;2022-08-01T08:04:42;2.15;;;0.95;;
65825;SDS011;52586;-43.152;172.732;2022-08-01T08:07:12;1.08;;;0.98;;
65825;SDS011;52586;-43.152;172.732;2022-08-01T08:09:43;1.10;;;0.93;;
65825;SDS011;52586;-43.152;172.732;2022-08-01T08:12:14;1.42;;;0.98;;
65825;SDS011;52586;-43.152;172.732;2022-08-01T08:14:44;1.25;;;0.93;;
65825;SDS011;52586;-43.152;172.732;2022-08-01T08:17:15;1.00;;;0.90;;
65825;SDS011;52586;-43.152;172.732;2022-08-01T08:19:48;1.10;;;0.93;;
65825;SDS011;52586;-43.152;172.732;2022-08-01T08:22:18;0.73;;;0.73;;
65825;SDS011;52586;-43.152;172.732;2022-08-01T08:24:49;1.27;;;1.00;;
65825;SDS011;52586;-43.152;172.732;2022-08-01T08:27:20;1.15;;;0.80;;
65825;SDS011;52586;-43.152;172.732;2022-08-01T08:29:51;1.60;;;0.80;;
65825;SDS011;52586;-43.152;172.732;2022-08-01T08:32:21;2.25;;;0.90;;
65825;SDS011;52586;-43.152;172.732;2022-08-01T08:34:54;1.05;;;0.95;;
65825;SDS011;52586;-43.152;172.732;2022-08-01T08:37:25;1.20;;;0.88;;
65825;SDS011;52586;-43.152;172.732;2022-08-01T08:39:55;1.30;;;0.80;;
65825;SDS011;52586;-43.152;172.732;2022-08-01T08:42:26;0.88;;;0.80;;
65825;SDS011;52586;-43.152;172.732;2022-08-01T08:44:57;1.13;;;0.80;;
65825;SDS011;52586;-43.152;172.732;2022-08-01T08:47:27;1.02;;;0.80;;
65825;SDS011;52586;-43.152;172.732;2022-08-01T08:50:02;0.98;;;0.80;;
65825;SDS011;52586;-43.152;172.732;2022-08-01T08:52:34;0.77;;;0.77;;
65825;SDS011;52586;-43.152;172.732;2022-08-01T08:55:07;1.88;;;0.90;;
65825;SDS011;52586;-43.152;172.732;2022-08-01T08:57:40;1.55;;;0.90;;
65825;SDS011;52586;-43.152;172.732;2022-08-01T09:00:14;1.13;;;0.98;;
65825;SDS011;52586;-43.152;172.732;2022-08-01T09:02:45;1.10;;;0.98;;
65825;SDS011;52586;-43.152;172.732;2022-08-01T09:05:20;1.73;;;1.02;;
65825;SDS011;52586;-43.152;172.732;2022-08-01T09:07:53;0.60;;;0.60;;
65825;SDS011;52586;-43.152;172.732;2022-08-01T09:10:24;1.00;;;0.80;;
65825;SDS011;52586;-43.152;172.732;2022-08-01T09:13:05;1.95;;;1.00;;
65825;SDS011;52586;-43.152;172.732;2022-08-01T09:15:38;1.70;;;1.10;;
65825;SDS011;52586;-43.152;172.732;2022-08-01T09:18:28;1.27;;;0.75;;
65825;SDS011;52586;-43.152;172.732;2022-08-01T09:21:15;1.08;;;0.80;;
65825;SDS011;52586;-43.152;172.732;2022-08-01T09:23:48;1.30;;;0.90;;
65825;SDS011;52586;-43.152;172.732;2022-08-01T09:26:20;0.90;;;0.75;;
65825;SDS011;52586;-43.152;172.732;2022-08-01T09:28:58;1.35;;;0.90;;
65825;SDS011;52586;-43.152;172.732;2022-08-01T09:31:38;1.40;;;0.90;;
65825;SDS011;52586;-43.152;172.732;2022-08-01T09:34:10;1.88;;;1.00;;
65825;SDS011;52586;-43.152;172.732;2022-08-01T09:36:46;1.70;;;1.00;;
65825;SDS011;52586;-43.152;172.732;2022-08-01T09:39:22;0.93;;;0.85;;
65825;SDS011;52586;-43.152;172.732;2022-08-01T09:41:54;1.05;;;0.80;;
65825;SDS011;52586;-43.152;172.732;2022-08-01T09:44:38;1.20;;;1.00;;
65825;SDS011;52586;-43.152;172.732;2022-08-01T09:47:10;1.40;;;0.80;;
65825;SDS011;52586;-43.152;172.732;2022-08-01T09:49:42;2.58;;;1.02;;
65825;SDS011;52586;-43.152;172.732;2022-08-01T09:52:16;1.55;;;0.80;;
65825;SDS011;52586;-43.152;172.732;2022-08-01T09:54:51;1.95;;;0.77;;
65825;SDS011;52586;-43.152;172.732;2022-08-01T09:57:23;0.82;;;0.80;;
65825;SDS011;52586;-43.152;172.732;2022-08-01T09:59:54;0.80;;;0.70;;
65825;SDS011;52586;-43.152;172.732;2022-08-01T10:02:27;1.92;;;0.80;;
65825;SDS011;52586;-43.152;172.732;2022-08-01T10:05:02;1.17;;;0.93;;
65825;SDS011;52586;-43.152;172.732;2022-08-01T10:07:36;0.60;;;0.60;;
65825;SDS011;52586;-43.152;172.732;2022-08-01T10:10:23;1.05;;;0.73;;
65825;SDS011;52586;-43.152;172.732;2022-08-01T10:12:54;0.82;;;0.70;;
65825;SDS011;52586;-43.152;172.732;2022-08-01T10:15:26;0.65;;;0.60;;
65825;SDS011;52586;-43.152;172.732;2022-08-01T10:17:58;0.95;;;0.75;;
65825;SDS011;52586;-43.152;172.732;2022-08-01T10:20:33;0.88;;;0.70;;
65825;SDS011;52586;-43.152;172.732;2022-08-01T10:23:05;1.67;;;0.70;;
65825;SDS011;52586;-43.152;172.732;2022-08-01T10:25:37;0.63;;;0.50;;
65825;SDS011;52586;-43.152;172.732;2022-08-01T10:28:13;1.08;;;0.80;;
65825;SDS011;52586;-43.152;172.732;2022-08-01T10:30:45;1.50;;;0.73;;
65825;SDS011;52586;-43.152;172.732;2022-08-01T10:33:16;0.50;;;0.50;;
65825;SDS011;52586;-43.152;172.732;2022-08-01T10:35:50;0.50;;;0.50;;
65825;SDS011;52586;-43.152;172.732;2022-08-01T10:38:23;0.80;;;0.70;;
65825;SDS011;52586;-43.152;172.732;2022-08-01T10:40:53;1.00;;;0.70;;
65825;SDS011;52586;-43.152;172.732;2022-08-01T10:43:25;0.65;;;0.55;;
65825;SDS011;52586;-43.152;172.732;2022-08-01T10:45:56;1.08;;;0.65;;
65825;SDS011;52586;-43.152;172.732;2022-08-01T10:48:29;0.88;;;0.68;;
65825;SDS011;52586;-43.152;172.732;2022-08-01T10:51:08;0.63;;;0.60;;
65825;SDS011;52586;-43.152;172.732;2022-08-01T10:53:48;0.75;;;0.65;;
65825;SDS011;52586;-43.152;172.732;2022-08-01T10:56:21;0.90;;;0.70;;
65825;SDS011;52586;-43.152;172.732;2022-08-01T10:58:55;0.82;;;0.60;;
65825;SDS011;52586;-43.152;172.732;2022-08-01T11:01:32;0.98;;;0.60;;
65825;SDS011;52586;-43.152;172.732;2022-08-01T11:04:04;0.88;;;0.70;;
65825;SDS011;52586;-43.152;172.732;2022-08-01T11:06:45;1.52;;;0.70;;
65825;SDS011;52586;-43.152;172.732;2022-08-01T11:09:29;0.85;;;0.63;;
65825;SDS011;52586;-43.152;172.732;2022-08-01T11:12:07;0.73;;;0.60;;
65825;SDS011;52586;-43.152;172.732;2022-08-01T11:17:55;0.80;;;0.65;;
65825;SDS011;52586;-43.152;172.732;2022-08-01T11:20:30;1.60;;;0.60;;
65825;SDS011;52586;-43.152;172.732;2022-08-01T11:26:11;0.88;;;0.60;;
65825;SDS011;52586;-43.152;172.732;2022-08-01T11:28:43;0.50;;;0.50;;
65825;SDS011;52586;-43.152;172.732;2022-08-01T11:31:28;0.60;;;0.60;;
65825;SDS011;52586;-43.152;172.732;2022-08-01T11:34:00;1.23;;;0.70;;
65825;SDS011;52586;-43.152;172.732;2022-08-01T11:36:31;0.75;;;0.73;;
65825;SDS011;52586;-43.152;172.732;2022-08-01T11:39:12;1.30;;;0.70;;
65825;SDS011;52586;-43.152;172.732;2022-08-01T11:41:48;0.70;;;0.50;;
65825;SDS011;52586;-43.152;172.732;2022-08-01T11:44:21;1.33;;;0.70;;
65825;SDS011;52586;-43.152;172.732;2022-08-01T11:47:00;0.40;;;0.40;;
65825;SDS011;52586;-43.152;172.732;2022-08-01T11:49:35;0.70;;;0.63;;
65825;SDS011;52586;-43.152;172.732;2022-08-01T11:52:15;0.65;;;0.60;;
65825;SDS011;52586;-43.152;172.732;2022-08-01T11:54:49;0.50;;;0.40;;
65825;SDS011;52586;-43.152;172.732;2022-08-01T11:57:23;0.60;;;0.55;;
65825;SDS011;52586;-43.152;172.732;2022-08-01T11:59:57;2.15;;;0.85;;
65825;SDS011;52586;-43.152;172.732;2022-08-01T12:02:29;0.77;;;0.60;;
65825;SDS011;52586;-43.152;172.732;2022-08-01T12:05:02;0.73;;;0.50;;
65825;SDS011;52586;-43.152;172.732;2022-08-01T12:07:35;1.00;;;0.50;;
65825;SDS011;52586;-43.152;172.732;2022-08-01T12:10:07;0.50;;;0.50;;
65825;SDS011;52586;-43.152;172.732;2022-08-01T12:12:44;0.50;;;0.50;;
65825;SDS011;52586;-43.152;172.732;2022-08-01T12:15:16;0.50;;;0.50;;
65825;SDS011;52586;-43.152;172.732;2022-08-01T12:17:49;1.00;;;0.52;;
65825;SDS011;52586;-43.152;172.732;2022-08-01T12:20:25;0.80;;;0.70;;
65825;SDS011;52586;-43.152;172.732;2022-08-01T12:22:58;0.63;;;0.57;;
65825;SDS011;52586;-43.152;172.732;2022-08-01T12:25:31;0.68;;;0.68;;
65825;SDS011;52586;-43.152;172.732;2022-08-01T12:28:05;0.40;;;0.40;;
65825;SDS011;52586;-43.152;172.732;2022-08-01T12:30:37;0.40;;;0.40;;
65825;SDS011;52586;-43.152;172.732;2022-08-01T12:33:08;0.98;;;0.50;;
65825;SDS011;52586;-43.152;172.732;2022-08-01T12:35:45;0.43;;;0.40;;
65825;SDS011;52586;-43.152;172.732;2022-08-01T12:38:16;0.50;;;0.50;;
65825;SDS011;52586;-43.152;172.732;2022-08-01T12:40:48;0.80;;;0.60;;
65825;SDS011;52586;-43.152;172.732;2022-08-01T12:43:21;0.52;;;0.50;;
65825;SDS011;52586;-43.152;172.732;2022-08-01T12:45:52;0.68;;;0.45;;
65825;SDS011;52586;-43.152;172.732;2022-08-01T12:48:24;0.80;;;0.50;;
65825;SDS011;52586;-43.152;172.732;2022-08-01T12:50:56;0.40;;;0.40;;
65825;SDS011;52586;-43.152;172.732;2022-08-01T12:53:28;0.55;;;0.40;;
65825;SDS011;52586;-43.152;172.732;2022-08-01T12:56:03;0.50;;;0.50;;
65825;SDS011;52586;-43.152;172.732;2022-08-01T12:58:36;0.60;;;0.60;;
65825;SDS011;52586;-43.152;172.732;2022-08-01T13:01:08;0.43;;;0.40;;
65825;SDS011;52586;-43.152;172.732;2022-08-01T13:03:57;0.40;;;0.40;;
65825;SDS011;52586;-43.152;172.732;2022-08-01T13:06:30;0.90;;;0.43;;
65825;SDS011;52586;-43.152;172.732;2022-08-01T13:09:04;0.40;;;0.40;;
65825;SDS011;52586;-43.152;172.732;2022-08-01T13:11:36;0.80;;;0.45;;
65825;SDS011;52586;-43.152;172.732;2022-08-01T13:14:09;0.60;;;0.60;;
65825;SDS011;52586;-43.152;172.732;2022-08-01T13:16:54;0.95;;;0.52;;
65825;SDS011;52586;-43.152;172.732;2022-08-01T13:22:13;0.60;;;0.50;;
65825;SDS011;52586;-43.152;172.732;2022-08-01T13:24:43;0.85;;;0.40;;
65825;SDS011;52586;-43.152;172.732;2022-08-01T13:27:20;0.70;;;0.32;;
65825;SDS011;52586;-43.152;172.732;2022-08-01T13:29:57;0.40;;;0.40;;
65825;SDS011;52586;-43.152;172.732;2022-08-01T13:32:40;0.73;;;0.45;;
65825;SDS011;52586;-43.152;172.732;2022-08-01T13:35:12;0.50;;;0.50;;
65825;SDS011;52586;-43.152;172.732;2022-08-01T13:37:43;0.50;;;0.40;;
65825;SDS011;52586;-43.152;172.732;2022-08-01T13:40:22;0.45;;;0.45;;
65825;SDS011;52586;-43.152;172.732;2022-08-01T13:42:54;0.50;;;0.50;;
65825;SDS011;52586;-43.152;172.732;2022-08-01T13:45:26;0.68;;;0.60;;
65825;SDS011;52586;-43.152;172.732;2022-08-01T13:47:57;0.40;;;0.40;;
65825;SDS011;52586;-43.152;172.732;2022-08-01T13:50:28;0.55;;;0.50;;
65825;SDS011;52586;-43.152;172.732;2022-08-01T13:52:58;0.43;;;0.38;;
65825;SDS011;52586;-43.152;172.732;2022-08-01T13:55:29;0.50;;;0.40;;
65825;SDS011;52586;-43.152;172.732;2022-08-01T13:58:00;0.40;;;0.40;;
65825;SDS011;52586;-43.152;172.732;2022-08-01T14:00:33;0.50;;;0.30;;
65825;SDS011;52586;-43.152;172.732;2022-08-01T14:03:03;0.45;;;0.40;;
65825;SDS011;52586;-43.152;172.732;2022-08-01T14:05:35;0.60;;;0.50;;
65825;SDS011;52586;-43.152;172.732;2022-08-01T14:08:06;0.50;;;0.45;;
65825;SDS011;52586;-43.152;172.732;2022-08-01T14:10:37;0.30;;;0.30;;
65825;SDS011;52586;-43.152;172.732;2022-08-01T14:13:08;0.55;;;0.55;;
65825;SDS011;52586;-43.152;172.732;2022-08-01T14:15:40;0.55;;;0.40;;
65825;SDS011;52586;-43.152;172.732;2022-08-01T14:18:11;0.63;;;0.45;;
65825;SDS011;52586;-43.152;172.732;2022-08-01T14:20:42;0.43;;;0.40;;
65825;SDS011;52586;-43.152;172.732;2022-08-01T14:23:13;0.45;;;0.40;;
65825;SDS011;52586;-43.152;172.732;2022-08-01T14:25:43;0.40;;;0.40;;
65825;SDS011;52586;-43.152;172.732;2022-08-01T14:28:14;0.38;;;0.30;;
65825;SDS011;52586;-43.152;172.732;2022-08-01T14:30:47;0.40;;;0.40;;
65825;SDS011;52586;-43.152;172.732;2022-08-01T14:33:18;0.40;;;0.40;;
65825;SDS011;52586;-43.152;172.732;2022-08-01T14:35:48;0.98;;;0.40;;
65825;SDS011;52586;-43.152;172.732;2022-08-01T14:38:19;0.28;;;0.28;;
65825;SDS011;52586;-43.152;172.732;2022-08-01T14:40:50;0.85;;;0.50;;
65825;SDS011;52586;-43.152;172.732;2022-08-01T14:43:20;0.50;;;0.50;;
65825;SDS011;52586;-43.152;172.732;2022-08-01T14:45:54;0.40;;;0.40;;
65825;SDS011;52586;-43.152;172.732;2022-08-01T14:48:24;0.55;;;0.55;;
65825;SDS011;52586;-43.152;172.732;2022-08-01T14:50:55;0.38;;;0.35;;
65825;SDS011;52586;-43.152;172.732;2022-08-01T14:53:28;0.47;;;0.40;;